Time;durP1;ratioP1;P1;durP2;ratioP2;P2;SDS_P1;SDS_P2;PMS_P1;PMS_P2;Temp;Humidity;BMP_temperature;BMP_pressure;BME280_temperature;BME280_humidity;BME280_pressure;Samples;Min_cycle;Max_cycle;Signal;HPM_P1;HPM_P2
2023/01/13 00:01:44;;;;;;;71.38;50.63;;;16.60;73.60;;;;;;4927736;28;95814;-47
2023/01/13 00:04:10;;;;;;;70.80;51.25;;;16.60;73.60;;;;;;4927800;28;96513;-47
2023/01/13 00:06:36;;;;;;;69.43;50.53;;;16.50;73.70;;;;;;4924194;28;95753;-51
2023/01/13 00:09:02;;;;;;;71.30;51.15;;;16.50;73.70;;;;;;4927851;28;95970;-50
2023/01/13 00:11:27;;;;;;;69.13;51.10;;;16.50;73.80;;;;;;4923183;28;95347;-48
2023/01/13 00:13:53;;;;;;;70.45;50.95;;;16.50;73.90;;;;;;4926220;28;97593;-47
2023/01/13 00:16:19;;;;;;;69.57;50.83;;;16.50;73.80;;;;;;4929387;28;97029;-48
2023/01/13 00:18:46;;;;;;;71.03;51.15;;;16.50;73.70;;;;;;4922597;28;95788;-48
2023/01/13 00:21:23;;;;;;;72.05;50.90;;;16.40;73.70;;;;;;4926829;28;95971;-50
2023/01/13 00:23:50;;;;;;;70.25;50.70;;;16.50;73.80;;;;;;4927896;28;97695;-46
2023/01/13 00:26:24;;;;;;;71.07;51.10;;;16.40;73.70;;;;;;4924253;28;95993;-47
2023/01/13 00:28:49;;;;;;;71.43;51.45;;;16.40;73.70;;;;;;4935459;28;96570;-48
2023/01/13 00:31:18;;;;;;;71.13;50.58;;;16.40;73.70;;;;;;4922568;28;95421;-46
2023/01/13 00:33:44;;;;;;;73.30;50.83;;;16.40;73.80;;;;;;4926220;28;96433;-47
2023/01/13 00:36:13;;;;;;;70.47;50.53;;;16.40;74.00;;;;;;4925566;28;97373;-46
2023/01/13 00:38:41;;;;;;;71.97;51.35;;;16.30;73.70;;;;;;4930536;28;94841;-46
2023/01/13 00:41:09;;;;;;;68.55;50.80;;;16.30;73.70;;;;;;4923325;28;95302;-48
2023/01/13 00:43:36;;;;;;;69.90;50.20;;;16.30;73.80;;;;;;4937816;28;94804;-48
2023/01/13 00:46:03;;;;;;;69.65;50.42;;;16.30;73.70;;;;;;4923011;28;95894;-50
2023/01/13 00:48:30;;;;;;;70.18;50.42;;;16.30;73.90;;;;;;4922838;28;95902;-47
2023/01/13 00:50:58;;;;;;;69.43;50.60;;;16.30;73.80;;;;;;4927534;28;98325;-50
2023/01/13 00:53:25;;;;;;;69.40;50.40;;;16.20;73.80;;;;;;4917491;28;95486;-50
2023/01/13 00:56:16;;;;;;;68.85;50.42;;;16.30;73.90;;;;;;4928400;28;95124;-45
2023/01/13 00:58:44;;;;;;;68.25;50.20;;;16.20;73.90;;;;;;4931049;28;95342;-48
2023/01/13 01:01:12;;;;;;;66.85;50.30;;;16.20;73.90;;;;;;4924528;28;96113;-49
2023/01/13 01:03:39;;;;;;;68.22;50.03;;;16.20;73.90;;;;;;4922737;28;95400;-50
2023/01/13 01:06:09;;;;;;;72.10;50.50;;;16.20;73.90;;;;;;4920767;28;96124;-47
2023/01/13 01:08:35;;;;;;;69.75;50.60;;;16.10;73.90;;;;;;4928413;28;94509;-47
2023/01/13 01:11:12;;;;;;;69.78;50.10;;;16.10;74.00;;;;;;4938887;28;95121;-46
2023/01/13 01:13:38;;;;;;;69.03;50.03;;;16.10;74.00;;;;;;4919346;28;94875;-47
2023/01/13 01:16:06;;;;;;;68.78;50.17;;;16.10;74.00;;;;;;4920226;28;95924;-50
2023/01/13 01:18:41;;;;;;;69.60;50.28;;;16.10;74.10;;;;;;4924140;28;95554;-45
2023/01/13 01:21:08;;;;;;;69.28;50.00;;;16.10;74.10;;;;;;4929352;28;95223;-48
2023/01/13 01:23:35;;;;;;;67.93;50.08;;;16.10;74.10;;;;;;4925689;28;95506;-48
2023/01/13 01:26:06;;;;;;;67.53;49.97;;;16.00;73.90;;;;;;4922948;28;95150;-46
2023/01/13 01:28:33;;;;;;;71.13;50.60;;;16.00;74.00;;;;;;4927499;28;95168;-46
2023/01/13 01:30:59;;;;;;;68.75;50.25;;;16.00;74.00;;;;;;4928518;28;95183;-46
2023/01/13 01:33:25;;;;;;;68.75;50.35;;;16.00;74.00;;;;;;4921591;28;94967;-49
2023/01/13 01:35:53;;;;;;;69.13;49.95;;;16.00;74.00;;;;;;4919618;28;95582;-46
2023/01/13 01:38:20;;;;;;;69.38;50.42;;;16.00;74.00;;;;;;4921737;28;96503;-46
2023/01/13 01:40:45;;;;;;;67.28;49.88;;;16.00;74.00;;;;;;4936491;28;96706;-47
2023/01/13 01:46:05;;;;;;;67.45;49.78;;;15.90;74.00;;;;;;4914405;28;95111;-51
2023/01/13 01:48:40;;;;;;;67.32;50.03;;;15.90;74.80;;;;;;4921799;28;97476;-47
2023/01/13 01:51:10;;;;;;;67.22;50.17;;;15.90;74.10;;;;;;4922929;28;96047;-48
2023/01/13 01:53:36;;;;;;;68.38;50.50;;;15.90;74.00;;;;;;4925668;28;96471;-47
2023/01/13 01:56:02;;;;;;;68.20;50.25;;;15.90;74.10;;;;;;4919323;28;96457;-46
2023/01/13 01:58:34;;;;;;;67.78;49.63;;;15.90;74.10;;;;;;4926470;28;94995;-45
2023/01/13 02:01:00;;;;;;;68.70;50.05;;;15.90;74.20;;;;;;4918809;28;96284;-49
2023/01/13 02:03:25;;;;;;;68.50;50.08;;;15.90;74.00;;;;;;4913824;28;95368;-48
2023/01/13 02:05:52;;;;;;;68.57;49.95;;;15.90;74.10;;;;;;4922373;28;96888;-47
2023/01/13 02:08:19;;;;;;;68.07;49.85;;;15.90;73.90;;;;;;4922939;28;96224;-46
2023/01/13 02:10:49;;;;;;;67.88;49.72;;;15.90;74.20;;;;;;4924861;28;95088;-46
2023/01/13 02:13:15;;;;;;;67.43;49.93;;;15.90;74.00;;;;;;4926055;28;96214;-46
2023/01/13 02:16:12;;;;;;;68.10;49.90;;;15.90;74.10;;;;;;4914417;28;96749;-48
2023/01/13 02:18:57;;;;;;;66.38;49.67;;;15.90;74.10;;;;;;4925030;28;95171;-47
2023/01/13 02:22:06;;;;;;;68.90;50.15;;;15.80;73.90;;;;;;4915159;28;96505;-51
2023/01/13 02:24:53;;;;;;;67.43;50.17;;;15.80;74.10;;;;;;4921327;28;96712;-48
2023/01/13 02:27:37;;;;;;;66.95;49.65;;;15.80;74.20;;;;;;4924794;28;95032;-47
2023/01/13 02:33:33;;;;;;;;;;;15.80;74.10;;;;;;4920426;28;96297;-49
2023/01/13 02:36:01;;;;;;;67.07;49.60;;;15.80;74.10;;;;;;4938225;28;96727;-49
2023/01/13 02:38:33;;;;;;;69.65;49.65;;;15.80;73.90;;;;;;4926665;28;94743;-46
2023/01/13 02:44:07;;;;;;;68.80;49.50;;;15.80;74.00;;;;;;4921179;28;96690;-46
2023/01/13 02:47:05;;;;;;;68.97;49.65;;;15.80;74.00;;;;;;4914099;28;95899;-49
2023/01/13 02:49:47;;;;;;;67.35;49.58;;;15.70;74.00;;;;;;4916547;28;96060;-47
2023/01/13 02:52:24;;;;;;;67.28;50.00;;;15.70;73.90;;;;;;4928586;28;94725;-47
2023/01/13 02:55:02;;;;;;;67.70;49.95;;;15.70;73.80;;;;;;4930539;28;94761;-48
2023/01/13 02:57:31;;;;;;;68.00;50.15;;;15.70;73.90;;;;;;4916667;28;96653;-49
2023/01/13 02:59:58;;;;;;;69.13;49.72;;;15.70;73.90;;;;;;4927789;28;96180;-47
2023/01/13 03:02:24;;;;;;;66.43;50.03;;;15.70;73.90;;;;;;4925637;28;95514;-47
2023/01/13 03:04:55;;;;;;;67.95;50.33;;;15.70;73.90;;;;;;4920387;28;96160;-48
2023/01/13 03:07:30;;;;;;;65.32;49.38;;;15.70;73.90;;;;;;4925373;28;96027;-48
2023/01/13 03:10:08;;;;;;;67.75;49.95;;;15.60;74.00;;;;;;4922650;28;94840;-48
2023/01/13 03:12:46;;;;;;;69.43;50.00;;;15.70;74.00;;;;;;4910840;28;100044;-52
2023/01/13 03:15:27;;;;;;;69.88;50.15;;;15.60;74.00;;;;;;4920837;28;95227;-47
2023/01/13 03:18:13;;;;;;;67.05;49.55;;;15.60;74.00;;;;;;4919198;28;95088;-50
2023/01/13 03:20:48;;;;;;;66.60;49.65;;;15.60;74.20;;;;;;4922874;28;97896;-47
2023/01/13 03:23:16;;;;;;;66.75;49.55;;;15.60;74.20;;;;;;4928964;28;94963;-48
2023/01/13 03:26:09;;;;;;;68.32;49.95;;;15.50;73.90;;;;;;4931046;28;95686;-46
2023/01/13 03:29:04;;;;;;;67.20;49.47;;;15.50;74.20;;;;;;4935201;28;95039;-48
2023/01/13 03:31:39;;;;;;;68.88;49.50;;;15.50;74.00;;;;;;4926456;28;94810;-48
2023/01/13 03:34:12;;;;;;;67.35;49.25;;;15.50;74.00;;;;;;4931780;28;95096;-49
2023/01/13 03:36:40;;;;;;;68.20;49.45;;;15.50;73.80;;;;;;4921820;28;95412;-47
2023/01/13 03:39:11;;;;;;;67.35;49.42;;;15.50;73.90;;;;;;4919729;28;94932;-50
2023/01/13 03:41:58;;;;;;;68.72;49.72;;;15.50;74.00;;;;;;4939310;28;95196;-52
2023/01/13 03:44:33;;;;;;;67.18;49.90;;;15.50;74.10;;;;;;4921380;28;94464;-51
2023/01/13 03:47:51;;;;;;;66.70;49.58;;;15.50;74.00;;;;;;4923270;28;95508;-48
2023/01/13 03:50:27;;;;;;;68.05;49.63;;;15.50;74.30;;;;;;4924557;28;95634;-47
2023/01/13 03:53:01;;;;;;;68.15;50.30;;;15.50;73.90;;;;;;4931518;28;97160;-52
2023/01/13 03:55:34;;;;;;;66.85;49.75;;;15.40;73.90;;;;;;4924800;28;95432;-47
2023/01/13 03:58:05;;;;;;;67.30;49.55;;;15.50;74.00;;;;;;4923344;28;95115;-48
2023/01/13 04:00:38;;;;;;;66.40;49.43;;;15.40;74.00;;;;;;4924390;28;94963;-50
2023/01/13 04:03:12;;;;;;;65.88;49.05;;;15.40;73.90;;;;;;4924847;28;96383;-50
2023/01/13 04:05:47;;;;;;;67.43;49.67;;;15.40;74.10;;;;;;4928390;28;95420;-48
2023/01/13 04:08:24;;;;;;;67.30;49.47;;;15.40;74.00;;;;;;4930935;28;95974;-48
2023/01/13 04:11:09;;;;;;;66.90;49.45;;;15.50;73.90;;;;;;4931997;28;94846;-47
2023/01/13 04:13:38;;;;;;;65.95;49.38;;;15.40;73.90;;;;;;4931076;28;100713;-46
2023/01/13 04:16:06;;;;;;;66.65;49.42;;;15.40;73.80;;;;;;4924417;28;96729;-49
2023/01/13 04:18:31;;;;;;;65.80;49.67;;;15.40;73.70;;;;;;4921560;28;99114;-45
2023/01/13 04:21:00;;;;;;;67.68;49.80;;;15.40;74.00;;;;;;4921625;28;95346;-46
2023/01/13 04:23:26;;;;;;;67.15;49.67;;;15.40;74.00;;;;;;4925053;28;94745;-46
2023/01/13 04:25:53;;;;;;;68.82;49.35;;;15.40;73.90;;;;;;4918862;28;95588;-46
2023/01/13 04:28:19;;;;;;;68.10;49.58;;;15.30;74.00;;;;;;4929664;28;94978;-46
2023/01/13 04:30:45;;;;;;;67.60;49.47;;;15.30;74.00;;;;;;4931975;28;94809;-48
2023/01/13 04:33:12;;;;;;;67.78;49.38;;;15.30;73.80;;;;;;4924514;28;98606;-51
2023/01/13 04:35:38;;;;;;;68.68;49.83;;;15.30;74.10;;;;;;4926422;28;94494;-49
2023/01/13 04:38:09;;;;;;;65.60;49.50;;;15.30;73.80;;;;;;4929843;28;96454;-46
2023/01/13 04:40:35;;;;;;;66.78;49.33;;;15.30;74.00;;;;;;4929913;28;95094;-51
2023/01/13 04:43:01;;;;;;;67.25;49.10;;;15.30;74.20;;;;;;4919103;28;96258;-50
2023/01/13 04:45:27;;;;;;;66.63;50.13;;;15.30;74.00;;;;;;4920003;28;96893;-48
2023/01/13 04:47:53;;;;;;;66.45;49.45;;;15.30;74.00;;;;;;4932725;28;95160;-46
2023/01/13 04:50:18;;;;;;;66.15;49.20;;;15.30;73.90;;;;;;4925246;28;95010;-49
2023/01/13 04:52:48;;;;;;;66.57;49.42;;;15.20;74.00;;;;;;4924924;28;98094;-50
2023/01/13 04:55:15;;;;;;;65.90;49.28;;;15.20;74.10;;;;;;4920194;28;95881;-48
2023/01/13 04:57:41;;;;;;;65.57;49.17;;;15.30;74.20;;;;;;4925752;28;95323;-48
2023/01/13 05:00:08;;;;;;;67.45;49.50;;;15.20;74.00;;;;;;4924247;28;95673;-48
2023/01/13 05:02:34;;;;;;;66.03;49.33;;;15.20;74.10;;;;;;4925173;28;95405;-48
2023/01/13 05:05:00;;;;;;;66.10;49.50;;;15.20;74.20;;;;;;4924226;28;94882;-47
2023/01/13 05:07:26;;;;;;;68.65;49.42;;;15.20;74.00;;;;;;4929421;28;96545;-47
2023/01/13 05:09:51;;;;;;;68.38;49.55;;;15.20;74.00;;;;;;4918009;28;95581;-46
2023/01/13 05:17:46;;;;;;;67.60;49.92;;;15.20;74.00;;;;;;4924105;28;99561;-47
2023/01/13 05:20:12;;;;;;;64.57;49.00;;;15.20;74.00;;;;;;4929731;28;94792;-48
2023/01/13 05:25:26;;;;;;;65.80;49.58;;;15.20;74.20;;;;;;4932030;28;94733;-49
2023/01/13 05:27:57;;;;;;;69.05;49.63;;;15.10;74.20;;;;;;4923879;28;97057;-49
2023/01/13 05:30:28;;;;;;;67.43;49.42;;;15.10;74.20;;;;;;4925952;28;96347;-49
2023/01/13 05:32:54;;;;;;;;;;;15.10;74.10;;;;;;4926277;28;96415;-47
2023/01/13 05:35:20;;;;;;;70.35;49.70;;;15.10;74.10;;;;;;4914443;28;95158;-46
2023/01/13 05:37:46;;;;;;;69.50;49.67;;;15.10;74.10;;;;;;4909118;28;95488;-46
2023/01/13 05:43:24;;;;;;;67.93;49.33;;;15.10;73.50;;;;;;4917175;28;96980;-46
2023/01/13 05:46:01;;;;;;;69.93;49.75;;;15.10;73.80;;;;;;4923715;28;94858;-46
2023/01/13 05:48:35;;;;;;;74.13;51.10;;;15.10;73.50;;;;;;4925064;28;95866;-45
2023/01/13 05:51:03;;;;;;;73.03;50.17;;;15.10;73.20;;;;;;4915864;28;96501;-47
2023/01/13 05:53:29;;;;;;;72.95;50.15;;;15.10;73.40;;;;;;4919005;28;94963;-47
2023/01/13 05:55:55;;;;;;;73.03;50.88;;;15.00;74.80;;;;;;4915135;28;96098;-46
2023/01/13 05:58:23;;;;;;;72.10;50.55;;;15.00;75.20;;;;;;4912140;28;97429;-46
2023/01/13 06:00:49;;;;;;;73.88;51.25;;;15.00;74.50;;;;;;4921345;28;95921;-46
2023/01/13 06:03:15;;;;;;;73.55;50.75;;;15.10;74.70;;;;;;4921669;28;95121;-46
2023/01/13 06:05:41;;;;;;;71.93;50.47;;;15.10;75.30;;;;;;4925157;28;96156;-47
2023/01/13 06:08:08;;;;;;;72.85;50.70;;;15.40;75.00;;;;;;4909118;28;95560;-48
2023/01/13 06:10:34;;;;;;;73.43;50.83;;;15.60;73.60;;;;;;4917557;28;95269;-49
2023/01/13 06:13:00;;;;;;;72.72;50.38;;;15.60;72.50;;;;;;4915354;28;95439;-49
2023/01/13 06:15:27;;;;;;;72.05;50.22;;;15.70;72.50;;;;;;4919110;28;96975;-51
2023/01/13 06:17:53;;;;;;;70.63;50.70;;;15.70;72.10;;;;;;4921481;28;96752;-49
2023/01/13 06:20:18;;;;;;;71.55;50.67;;;15.70;72.20;;;;;;4915648;28;101288;-49
2023/01/13 06:22:49;;;;;;;72.80;50.53;;;15.70;72.40;;;;;;4927267;28;98002;-47
2023/01/13 06:25:23;;;;;;;72.90;50.88;;;15.70;72.60;;;;;;4917940;28;96344;-48
2023/01/13 06:27:49;;;;;;;74.10;50.42;;;15.70;72.70;;;;;;4915282;28;96745;-47
2023/01/13 06:30:16;;;;;;;71.30;50.63;;;15.70;72.80;;;;;;4916585;28;95761;-49
2023/01/13 06:32:45;;;;;;;73.47;50.70;;;15.70;73.40;;;;;;4917336;28;95308;-46
2023/01/13 06:35:14;;;;;;;75.43;50.65;;;15.70;72.90;;;;;;4923102;28;96411;-49
2023/01/13 06:37:43;;;;;;;71.30;50.38;;;15.70;73.10;;;;;;4909327;28;95620;-49
2023/01/13 06:40:11;;;;;;;71.90;50.92;;;15.70;73.50;;;;;;4926879;28;94994;-48
2023/01/13 06:45:24;;;;;;;76.72;50.75;;;15.60;74.50;;;;;;4914290;28;97853;-50
2023/01/13 06:47:50;;;;;;;72.57;50.50;;;15.60;74.00;;;;;;4927438;28;96479;-47
2023/01/13 06:50:19;;;;;;;73.47;50.30;;;15.60;74.00;;;;;;4915918;28;96915;-46
2023/01/13 06:52:45;;;;;;;74.78;50.72;;;15.60;74.10;;;;;;4920833;28;95875;-48
2023/01/13 06:55:11;;;;;;;79.20;50.97;;;15.60;74.30;;;;;;4923152;28;95277;-46
2023/01/13 06:58:06;;;;;;;70.55;50.47;;;15.60;74.20;;;;;;4916028;28;101092;-45
2023/01/13 07:00:35;;;;;;;72.22;50.85;;;15.60;74.40;;;;;;4915437;28;96229;-46
2023/01/13 07:03:13;;;;;;;72.50;51.00;;;15.60;74.40;;;;;;4911613;28;95761;-51
2023/01/13 07:05:40;;;;;;;74.38;52.10;;;15.60;74.10;;;;;;4922124;28;94126;-50
2023/01/13 07:08:07;;;;;;;73.53;51.53;;;15.50;73.70;;;;;;4911725;28;96978;-48
2023/01/13 07:10:33;;;;;;;79.60;52.38;;;15.50;74.00;;;;;;4920956;28;95153;-48
2023/01/13 07:16:04;;;;;;;76.70;52.58;;;15.60;73.60;;;;;;4921872;28;95544;-50
2023/01/13 07:18:31;;;;;;;75.15;51.35;;;15.80;73.40;;;;;;4925857;28;96412;-45
2023/01/13 07:20:59;;;;;;;74.07;51.72;;;15.80;73.40;;;;;;4912116;28;94995;-49
2023/01/13 07:23:30;;;;;;;169.75;110.25;;;15.90;73.40;;;;;;4918000;28;95297;-51
2023/01/13 07:25:57;;;;;;;227.47;144.80;;;16.00;72.80;;;;;;4921904;28;95495;-49
2023/01/13 07:28:24;;;;;;;189.18;125.20;;;16.10;72.10;;;;;;4912101;28;96763;-52
2023/01/13 07:30:50;;;;;;;156.40;106.45;;;16.10;71.10;;;;;;4915819;28;95218;-54
2023/01/13 07:33:17;;;;;;;160.35;108.55;;;16.00;71.20;;;;;;4916675;28;95654;-49
2023/01/13 07:35:43;;;;;;;150.73;99.82;;;15.90;71.10;;;;;;4922927;28;95407;-52
2023/01/13 07:38:09;;;;;;;141.52;98.53;;;16.00;71.00;;;;;;4917311;28;97493;-52
2023/01/13 07:40:35;;;;;;;135.30;92.47;;;16.00;70.90;;;;;;4902660;28;100348;-46
2023/01/13 07:45:45;;;;;;;146.45;98.30;;;16.20;70.80;;;;;;4920954;28;95166;-53
2023/01/13 07:48:11;;;;;;;139.80;90.35;;;16.30;70.30;;;;;;4918797;28;95121;-48
2023/01/13 07:50:37;;;;;;;125.95;86.65;;;16.20;69.80;;;;;;4915772;28;97686;-49
2023/01/13 07:53:03;;;;;;;123.95;84.10;;;16.20;69.90;;;;;;4916965;28;95233;-50
2023/01/13 07:55:28;;;;;;;123.47;82.32;;;16.20;70.00;;;;;;4924140;28;94359;-49
2023/01/13 07:57:54;;;;;;;111.60;79.05;;;16.20;69.90;;;;;;4920873;28;96897;-51
2023/01/13 08:00:20;;;;;;;114.88;78.45;;;16.20;69.70;;;;;;4920998;28;96066;-51
2023/01/13 08:02:46;;;;;;;115.82;77.95;;;16.30;69.50;;;;;;4927893;28;96845;-52
2023/01/13 08:05:12;;;;;;;113.53;77.53;;;16.30;69.30;;;;;;4920502;28;104191;-52
2023/01/13 08:07:39;;;;;;;112.32;77.68;;;16.30;69.20;;;;;;4914173;28;101825;-52
2023/01/13 08:10:05;;;;;;;102.30;71.45;;;16.30;69.20;;;;;;4913023;28;95184;-48
2023/01/13 08:15:15;;;;;;;105.05;72.47;;;16.40;69.20;;;;;;4929448;28;96749;-52
2023/01/13 08:17:41;;;;;;;109.95;71.47;;;16.40;69.00;;;;;;4916800;28;96727;-49
2023/01/13 08:20:07;;;;;;;97.72;67.47;;;16.40;68.70;;;;;;4916013;28;95548;-50
2023/01/13 08:22:33;;;;;;;98.65;67.18;;;16.30;68.90;;;;;;4924479;28;94856;-53
2023/01/13 08:24:59;;;;;;;106.82;70.82;;;16.20;69.50;;;;;;4918879;28;96891;-51
2023/01/13 08:27:24;;;;;;;98.30;67.47;;;16.10;70.00;;;;;;4912618;28;97716;-48
2023/01/13 08:29:50;;;;;;;97.63;65.22;;;16.30;69.80;;;;;;4922161;28;98499;-52
2023/01/13 08:32:16;;;;;;;91.30;62.97;;;16.40;69.50;;;;;;4913247;28;96162;-54
2023/01/13 08:34:42;;;;;;;97.38;65.80;;;16.40;69.50;;;;;;4919852;28;95198;-53
2023/01/13 08:37:07;;;;;;;93.82;62.20;;;16.40;70.00;;;;;;4910738;28;97080;-54
2023/01/13 08:39:34;;;;;;;93.45;63.88;;;16.40;70.20;;;;;;4915726;28;95167;-50
2023/01/13 08:42:01;;;;;;;91.97;60.35;;;16.40;70.40;;;;;;4912836;28;97230;-49
2023/01/13 08:44:29;;;;;;;96.45;63.50;;;16.40;70.60;;;;;;4916107;28;94882;-48
2023/01/13 08:46:55;;;;;;;90.82;61.10;;;16.50;70.70;;;;;;4924510;28;95411;-49
2023/01/13 08:49:21;;;;;;;87.43;59.55;;;16.50;70.70;;;;;;4929978;28;101610;-51
2023/01/13 08:51:47;;;;;;;91.35;59.55;;;16.50;71.50;;;;;;4922376;28;96771;-52
2023/01/13 08:54:13;;;;;;;88.30;58.78;;;16.50;70.80;;;;;;4921513;28;98262;-51
2023/01/13 08:56:44;;;;;;;89.18;59.50;;;16.50;70.90;;;;;;4927314;28;95900;-52
2023/01/13 08:59:18;;;;;;;87.80;58.20;;;16.50;71.00;;;;;;4920345;28;95335;-51
2023/01/13 09:01:44;;;;;;;89.85;59.45;;;16.50;71.20;;;;;;4922216;28;95181;-53
2023/01/13 09:04:16;;;;;;;88.25;58.35;;;16.50;71.10;;;;;;4911608;28;96368;-50
2023/01/13 09:06:43;;;;;;;88.72;59.08;;;16.50;70.80;;;;;;4915870;28;101572;-49
2023/01/13 09:09:08;;;;;;;84.90;57.10;;;16.60;70.90;;;;;;4928086;28;96403;-51
2023/01/13 09:14:24;;;;;;;84.13;58.05;;;16.50;70.70;;;;;;4913397;28;95349;-51
2023/01/13 09:16:50;;;;;;;84.13;56.80;;;16.50;70.60;;;;;;4916034;28;96983;-51
2023/01/13 09:19:16;;;;;;;86.05;57.35;;;16.50;70.50;;;;;;4922324;28;96524;-51
2023/01/13 09:21:41;;;;;;;97.00;63.33;;;16.50;71.50;;;;;;4921494;28;95608;-50
2023/01/13 09:24:07;;;;;;;92.88;59.95;;;16.50;70.70;;;;;;4919628;28;95736;-50
2023/01/13 09:26:33;;;;;;;92.05;61.03;;;16.50;70.80;;;;;;4914673;28;95809;-52
2023/01/13 09:28:59;;;;;;;90.40;58.67;;;16.40;70.70;;;;;;4930285;28;95455;-52
2023/01/13 09:31:25;;;;;;;84.85;58.00;;;16.50;70.30;;;;;;4920910;28;100302;-47
2023/01/13 09:36:34;;;;;;;89.78;56.53;;;16.60;69.60;;;;;;4909003;28;97019;-52
2023/01/13 09:39:00;;;;;;;88.75;58.08;;;16.70;69.90;;;;;;4917971;28;95414;-51
2023/01/13 09:44:54;;;;;;;89.00;58.30;;;16.70;70.40;;;;;;4915832;28;98842;-49
2023/01/13 09:47:27;;;;;;;91.88;57.38;;;16.70;71.10;;;;;;4917381;28;97510;-50
2023/01/13 09:50:01;;;;;;;89.60;57.03;;;16.70;71.30;;;;;;4913256;28;98235;-50
2023/01/13 09:52:27;;;;;;;88.18;56.38;;;16.60;72.00;;;;;;4902628;28;103289;-50
2023/01/13 09:55:06;;;;;;;89.00;56.45;;;16.60;72.20;;;;;;4909239;28;95273;-49
2023/01/13 09:57:36;;;;;;;87.10;56.40;;;16.60;72.10;;;;;;4928221;28;95348;-47
2023/01/13 10:00:09;;;;;;;91.88;57.63;;;16.60;71.60;;;;;;4922186;28;94699;-51
2023/01/13 10:03:13;;;;;;;87.07;56.75;;;16.60;72.30;;;;;;4913385;28;95872;-49
2023/01/13 10:05:46;;;;;;;83.93;55.55;;;16.60;72.50;;;;;;4912692;28;101264;-51
2023/01/13 10:08:20;;;;;;;86.00;56.13;;;16.60;72.60;;;;;;4915030;28;98863;-54
2023/01/13 10:10:48;;;;;;;83.22;55.40;;;16.60;72.70;;;;;;4916708;28;95393;-53
2023/01/13 10:13:25;;;;;;;85.38;56.80;;;16.60;72.80;;;;;;4905430;28;102154;-49
2023/01/13 10:16:03;;;;;;;88.28;55.75;;;16.60;73.10;;;;;;4920608;28;96702;-51
2023/01/13 10:18:48;;;;;;;85.25;55.55;;;16.60;73.10;;;;;;4914389;28;95456;-51
2023/01/13 10:22:04;;;;;;;84.10;55.80;;;16.60;73.30;;;;;;4910151;28;96383;-52
2023/01/13 10:25:06;;;;;;;82.68;54.92;;;16.60;73.40;;;;;;4937351;28;96156;-53
2023/01/13 10:27:34;;;;;;;84.70;55.17;;;16.60;73.40;;;;;;4930237;28;96871;-50
2023/01/13 10:30:20;;;;;;;83.20;54.58;;;16.60;74.00;;;;;;4918399;28;95297;-51
2023/01/13 10:32:53;;;;;;;86.30;54.15;;;16.60;73.90;;;;;;4919299;28;97302;-49
2023/01/13 10:35:58;;;;;;;81.30;54.47;;;16.60;73.90;;;;;;4912217;28;96761;-52
2023/01/13 10:38:45;;;;;;;84.25;54.10;;;16.60;73.60;;;;;;4922820;28;95202;-50
2023/01/13 10:41:27;;;;;;;78.95;53.92;;;16.50;74.20;;;;;;4909631;28;95515;-51
2023/01/13 10:44:00;;;;;;;81.68;54.20;;;16.50;74.60;;;;;;4914009;28;95069;-48
2023/01/13 10:46:27;;;;;;;79.50;54.10;;;16.50;74.10;;;;;;4901520;28;95540;-51
2023/01/13 10:48:56;;;;;;;78.68;54.92;;;16.50;74.10;;;;;;4908233;28;95521;-51
2023/01/13 10:51:25;;;;;;;81.15;54.38;;;16.40;73.80;;;;;;4922354;28;96627;-54
2023/01/13 10:53:56;;;;;;;80.38;54.25;;;16.40;74.40;;;;;;4906306;28;96274;-50
2023/01/13 10:56:23;;;;;;;82.05;53.72;;;16.50;75.00;;;;;;4909402;28;96039;-54
2023/01/13 10:58:49;;;;;;;76.78;54.42;;;16.50;73.40;;;;;;4909815;28;102994;-54
2023/01/13 11:01:26;;;;;;;78.60;52.67;;;16.50;73.20;;;;;;4919316;28;96355;-49
2023/01/13 11:03:55;;;;;;;78.10;53.53;;;16.50;73.20;;;;;;4914889;28;96416;-52
2023/01/13 11:06:20;;;;;;;81.45;53.47;;;16.50;72.70;;;;;;4922352;28;95677;-51
2023/01/13 11:08:48;;;;;;;79.60;52.92;;;16.50;73.10;;;;;;4919273;28;98504;-54
2023/01/13 11:11:41;;;;;;;78.40;52.78;;;16.50;73.20;;;;;;4920947;28;97208;-54
2023/01/13 11:14:40;;;;;;;84.00;53.92;;;16.70;74.30;;;;;;4922856;28;95605;-50
2023/01/13 11:17:40;;;;;;;83.40;53.03;;;16.80;72.40;;;;;;4926034;28;98894;-55
2023/01/13 11:20:29;;;;;;;80.28;52.42;;;16.90;71.00;;;;;;4925775;28;95449;-54
2023/01/13 11:22:58;;;;;;;78.78;52.40;;;16.80;71.20;;;;;;4927101;28;96136;-48
2023/01/13 11:25:41;;;;;;;79.05;52.67;;;16.80;71.40;;;;;;4913445;28;98841;-52
2023/01/13 11:28:16;;;;;;;79.43;52.50;;;16.80;71.30;;;;;;4920879;28;96439;-53
2023/01/13 11:31:07;;;;;;;78.47;52.55;;;16.80;71.20;;;;;;4931164;28;95121;-50
2023/01/13 11:34:11;;;;;;;87.55;52.83;;;16.80;70.60;;;;;;4923407;28;96038;-50
2023/01/13 11:36:52;;;;;;;80.00;52.70;;;16.80;70.40;;;;;;4914625;28;95105;-51
2023/01/13 11:39:28;;;;;;;82.72;53.00;;;16.90;70.60;;;;;;4931027;28;96947;-53
2023/01/13 11:42:23;;;;;;;78.70;52.67;;;16.80;70.20;;;;;;4921225;28;98332;-50
2023/01/13 11:45:10;;;;;;;78.15;52.55;;;16.90;70.10;;;;;;4922180;28;95557;-54
2023/01/13 11:47:36;;;;;;;79.13;52.50;;;16.80;69.70;;;;;;4921869;28;95596;-50
2023/01/13 11:50:12;;;;;;;77.38;51.97;;;16.90;70.00;;;;;;4923190;28;96338;-50
2023/01/13 11:52:56;;;;;;;76.03;52.35;;;16.80;71.00;;;;;;4920999;28;95241;-53
2023/01/13 11:55:21;;;;;;;80.28;51.92;;;16.80;70.60;;;;;;4910307;28;97626;-49
2023/01/13 11:58:39;;;;;;;77.57;52.35;;;16.80;70.30;;;;;;4936018;28;98776;-54
2023/01/13 12:01:31;;;;;;;78.13;52.47;;;16.80;69.80;;;;;;4920725;28;95527;-53
2023/01/13 12:04:14;;;;;;;81.50;52.88;;;16.80;70.20;;;;;;4925512;28;97170;-50
2023/01/13 12:06:40;;;;;;;84.82;52.60;;;16.80;70.30;;;;;;4920956;28;96254;-50
2023/01/13 12:09:43;;;;;;;77.20;51.45;;;16.70;70.50;;;;;;4928059;28;96492;-47
2023/01/13 12:12:22;;;;;;;73.03;51.53;;;16.70;70.60;;;;;;4931312;28;95371;-48
2023/01/13 12:14:50;;;;;;;77.65;51.78;;;16.60;71.50;;;;;;4928002;28;94914;-50
2023/01/13 12:17:45;;;;;;;75.47;51.53;;;16.60;71.40;;;;;;4928869;28;95086;-48
2023/01/13 12:20:40;;;;;;;77.95;51.95;;;16.60;71.80;;;;;;4930656;28;96034;-48
2023/01/13 12:23:24;;;;;;;84.00;52.08;;;16.70;72.80;;;;;;4928875;28;95864;-51
2023/01/13 12:25:54;;;;;;;79.15;51.95;;;16.70;73.20;;;;;;4933291;28;95402;-49
2023/01/13 12:28:39;;;;;;;74.63;51.70;;;16.70;73.50;;;;;;4916984;28;95631;-51
2023/01/13 12:31:06;;;;;;;76.47;51.72;;;16.70;73.70;;;;;;4917445;28;95040;-46
2023/01/13 12:33:43;;;;;;;76.25;51.95;;;16.70;73.20;;;;;;4927580;28;97264;-49
2023/01/13 12:36:26;;;;;;;79.55;51.78;;;16.70;74.70;;;;;;4922728;28;96220;-46
2023/01/13 12:39:34;;;;;;;79.97;52.30;;;16.70;74.30;;;;;;4927402;28;95909;-50
2023/01/13 12:45:06;;;;;;;73.72;51.38;;;16.70;75.10;;;;;;4915215;28;96988;-51
2023/01/13 12:47:35;;;;;;;74.45;51.63;;;16.70;76.00;;;;;;4924054;28;95638;-52
2023/01/13 12:50:25;;;;;;;72.78;51.78;;;16.70;75.40;;;;;;4921974;28;97119;-52
2023/01/13 12:52:57;;;;;;;74.65;51.85;;;16.60;75.00;;;;;;4928935;28;97012;-48
2023/01/13 12:55:24;;;;;;;76.82;51.90;;;16.60;75.40;;;;;;4930576;28;94901;-49
2023/01/13 12:57:56;;;;;;;79.63;51.58;;;16.60;75.40;;;;;;4926687;28;94933;-51
2023/01/13 13:00:22;;;;;;;77.47;51.38;;;16.60;75.50;;;;;;4918370;28;95950;-52
2023/01/13 13:03:40;;;;;;;92.45;52.13;;;16.50;74.90;;;;;;4921848;28;95969;-48
2023/01/13 13:06:20;;;;;;;77.32;51.97;;;16.50;74.80;;;;;;4909783;28;95306;-50
2023/01/13 13:08:58;;;;;;;74.65;51.67;;;16.50;74.40;;;;;;4924148;28;96423;-53
2023/01/13 13:14:40;;;;;;;74.38;51.47;;;16.50;74.40;;;;;;4925395;28;97347;-51
2023/01/13 13:17:27;;;;;;;73.97;51.15;;;16.50;73.50;;;;;;4918974;28;95803;-49
2023/01/13 13:19:54;;;;;;;73.18;51.58;;;16.50;73.30;;;;;;4922967;28;95061;-49
2023/01/13 13:22:35;;;;;;;74.95;51.63;;;16.40;72.90;;;;;;4934611;28;97579;-53
2023/01/13 13:25:00;;;;;;;75.38;51.65;;;16.50;73.30;;;;;;4925602;28;95773;-52
2023/01/13 13:27:36;;;;;;;76.55;52.00;;;16.50;72.90;;;;;;4914554;28;98454;-53
2023/01/13 13:30:42;;;;;;;74.45;51.30;;;16.50;72.80;;;;;;4922401;28;95556;-52
2023/01/13 13:33:08;;;;;;;72.72;51.25;;;16.50;72.30;;;;;;4923375;28;95475;-53
2023/01/13 13:35:51;;;;;;;72.45;50.90;;;16.50;72.30;;;;;;4925369;28;94343;-53
2023/01/13 13:47:19;;;;;;;77.00;51.20;;;16.40;71.30;;;;;;4916837;28;96421;-51
2023/01/13 13:49:48;;;;;;;76.25;51.80;;;16.40;71.50;;;;;;4913925;28;95081;-53